Terminal Aerodrome Forecast
Issued by NWS Miami, FL

Home | Current Version | Previous Version | Text Only | Print | Product List | Glossary On
Versions: 1 2 3 4 5 6 7 8 9 10 11 12 13 14 15 16 17 18 19 20 21 22 23 24
000
FTUS42 KMFL 191744
TAFPBI
TAF
KPBI 191744Z 1918/2018 26010KT P6SM SKC
     FM200300 32005KT P6SM SCT025 SCT040 BKN250
     FM200800 02012KT P6SM SCT025 BKN040 OVC250
     FM201400 06015KT P6SM SCT035 BKN050 OVC250=

USA.gov is the U.S. government's official web portal to all federal, state and local government web resources and services.